createdAt,value
2019-05-23T00:02:09.469Z,99.90
2019-05-23T00:05:13.520Z,99.90
2019-05-23T00:08:01.678Z,99.90
2019-05-23T00:10:47.679Z,99.90
2019-05-23T00:13:43.574Z,99.90
2019-05-23T00:16:15.790Z,99.90
2019-05-23T00:18:45.250Z,99.90
2019-05-23T00:21:15.834Z,99.90
2019-05-23T00:23:45.361Z,99.90
2019-05-23T00:26:16.774Z,99.90
2019-05-23T00:28:48.043Z,99.90
2019-05-23T00:31:29.518Z,99.90
2019-05-23T00:33:59.097Z,99.90
2019-05-23T00:36:29.110Z,99.90
2019-05-23T00:38:59.009Z,99.90
2019-05-23T00:41:29.504Z,99.90
2019-05-23T00:43:59.105Z,99.90
2019-05-23T00:46:30.125Z,99.90
2019-05-23T00:49:00.310Z,99.90
2019-05-23T00:51:31.703Z,99.90
2019-05-23T00:54:02.524Z,99.90
2019-05-23T00:56:33.154Z,99.90
2019-05-23T00:59:02.752Z,99.90
2019-05-23T01:01:32.871Z,99.90
2019-05-23T01:04:03.849Z,99.90
2019-05-23T01:06:34.998Z,99.90
2019-05-23T01:09:08.117Z,99.90
2019-05-23T01:11:38.351Z,99.90
2019-05-23T01:14:08.656Z,99.90
2019-05-23T01:16:38.872Z,99.90
2019-05-23T01:19:09.485Z,99.90
2019-05-23T01:21:40.665Z,99.90
2019-05-23T01:24:12.098Z,99.90
2019-05-23T01:26:42.341Z,99.90
2019-05-23T01:29:13.735Z,99.90
2019-05-23T01:31:45.182Z,99.90
2019-05-23T01:34:16.838Z,99.90
2019-05-23T01:36:46.746Z,99.90
2019-05-23T01:39:16.927Z,99.90
2019-05-23T01:41:46.687Z,99.90
2019-05-23T01:44:16.124Z,99.90
2019-05-23T01:46:45.655Z,99.90
2019-05-23T01:49:16.174Z,99.90
2019-05-23T01:51:45.650Z,99.90
2019-05-23T01:54:15.838Z,99.90
2019-05-23T01:56:45.482Z,99.90
2019-05-23T01:59:15.592Z,99.90
2019-05-23T02:01:45.203Z,99.90
2019-05-23T02:04:15.073Z,99.90
2019-05-23T02:06:44.971Z,99.90
2019-05-23T02:09:16.062Z,99.90
2019-05-23T02:11:45.994Z,99.90
2019-05-23T02:14:16.608Z,99.90
2019-05-23T02:16:46.656Z,99.90
2019-05-23T02:19:16.437Z,99.90
2019-05-23T02:21:45.920Z,99.90
2019-05-23T02:24:17.221Z,99.90
2019-05-23T02:26:46.856Z,99.90
2019-05-23T02:29:17.444Z,99.90
2019-05-23T02:31:47.402Z,99.90
2019-05-23T02:34:17.685Z,99.90
2019-05-23T02:36:48.375Z,99.90
2019-05-23T02:39:25.226Z,99.90
2019-05-23T02:41:56.390Z,99.90
2019-05-23T02:44:28.051Z,99.90
2019-05-23T02:46:59.255Z,99.90
2019-05-23T02:49:31.791Z,99.90
2019-05-23T02:52:16.694Z,99.90
2019-05-23T02:54:47.708Z,99.90
2019-05-23T02:57:18.824Z,99.90
2019-05-23T02:59:52.033Z,99.90
2019-05-23T03:02:47.478Z,99.90
2019-05-23T03:05:19.447Z,99.90
2019-05-23T03:07:50.813Z,99.90
2019-05-23T03:10:24.038Z,99.90
2019-05-23T03:12:54.551Z,99.90
2019-05-23T03:15:24.912Z,99.90
2019-05-23T03:17:56.879Z,99.90
2019-05-23T03:20:27.147Z,99.90
2019-05-23T03:23:12.257Z,99.90
2019-05-23T03:25:50.809Z,99.90
2019-05-23T03:28:20.994Z,99.90
2019-05-23T03:31:25.116Z,99.90
2019-05-23T03:33:33.921Z,99.90
2019-05-23T03:36:05.520Z,99.90
2019-05-23T03:38:36.726Z,99.90
2019-05-23T03:41:06.305Z,99.90
2019-05-23T03:43:36.623Z,99.90
2019-05-23T03:46:07.801Z,99.90
2019-05-23T03:48:37.874Z,99.90
2019-05-23T03:51:09.474Z,99.90
2019-05-23T03:53:39.893Z,99.90
2019-05-23T03:56:10.082Z,99.90
2019-05-23T03:58:41.766Z,99.90
2019-05-23T04:01:13.231Z,99.90
2019-05-23T04:03:44.926Z,99.90
2019-05-23T04:06:14.809Z,99.90
2019-05-23T04:08:44.363Z,99.90
2019-05-23T04:11:13.964Z,99.90
2019-05-23T04:13:43.451Z,99.90
2019-05-23T04:16:13.677Z,99.90
2019-05-23T04:18:43.326Z,99.90
2019-05-23T04:21:13.330Z,99.90
2019-05-23T04:23:42.820Z,99.90
2019-05-23T04:26:12.940Z,99.90
2019-05-23T04:28:42.491Z,99.90
2019-05-23T04:31:13.637Z,99.90
2019-05-23T04:33:43.221Z,99.90
2019-05-23T04:36:14.121Z,99.90
2019-05-23T04:38:43.969Z,99.90
2019-05-23T04:41:13.971Z,99.90
2019-05-23T04:43:43.514Z,99.90
2019-05-23T04:46:13.331Z,99.90
2019-05-23T04:48:43.152Z,99.90
2019-05-23T04:51:13.583Z,99.90
2019-05-23T04:53:43.058Z,99.90
2019-05-23T04:56:13.430Z,99.90
2019-05-23T04:58:42.977Z,99.90
2019-05-23T05:01:14.896Z,99.90
2019-05-23T05:03:45.696Z,99.90
2019-05-23T05:06:15.522Z,99.90
2019-05-23T05:08:45.643Z,99.90
2019-05-23T05:11:15.647Z,99.90
2019-05-23T05:13:45.460Z,99.90
2019-05-23T05:16:15.054Z,99.90
2019-05-23T05:18:44.537Z,99.90
2019-05-23T05:21:14.367Z,99.90
2019-05-23T05:23:43.988Z,99.90
2019-05-23T05:26:16.527Z,99.90
2019-05-23T05:28:46.409Z,99.90
2019-05-23T05:31:15.883Z,99.90
2019-05-23T05:33:45.356Z,99.90
2019-05-23T05:36:14.811Z,99.90
2019-05-23T05:38:44.708Z,99.90
2019-05-23T05:41:14.776Z,99.90
2019-05-23T05:43:44.407Z,99.90
2019-05-23T05:46:13.928Z,99.90
2019-05-23T05:48:43.486Z,99.90
2019-05-23T05:51:12.939Z,99.90
2019-05-23T05:53:42.851Z,99.90
2019-05-23T05:56:12.462Z,99.90
2019-05-23T05:58:42.537Z,99.90
2019-05-23T06:01:13.649Z,99.90
2019-05-23T06:03:43.125Z,99.90
2019-05-23T06:06:29.577Z,99.90
2019-05-23T06:09:00.702Z,99.90
2019-05-23T06:11:30.500Z,99.90
2019-05-23T06:13:59.983Z,99.90
2019-05-23T06:16:29.443Z,99.90
2019-05-23T06:18:59.112Z,99.90
2019-05-23T06:21:28.837Z,99.90
2019-05-23T06:23:58.596Z,99.90
2019-05-23T06:26:28.387Z,99.90
2019-05-23T06:28:57.879Z,99.90
2019-05-23T06:31:27.980Z,99.90
2019-05-23T06:33:57.470Z,99.90
2019-05-23T06:36:27.377Z,99.90
2019-05-23T06:38:56.851Z,99.90
2019-05-23T06:41:26.983Z,99.90
2019-05-23T06:43:56.486Z,99.90
2019-05-23T06:46:26.067Z,99.90
2019-05-23T06:48:55.746Z,99.90
2019-05-23T06:51:25.195Z,99.90
2019-05-23T06:53:55.216Z,99.90
2019-05-23T06:56:25.548Z,99.90
2019-05-23T06:58:55.367Z,99.90
2019-05-23T07:01:24.966Z,99.90
2019-05-23T07:03:54.455Z,99.90
2019-05-23T07:06:24.635Z,99.90
2019-05-23T07:08:54.256Z,99.90
2019-05-23T07:11:24.456Z,99.90
2019-05-23T07:13:54.283Z,99.90
2019-05-23T07:16:23.751Z,99.90
2019-05-23T07:18:53.426Z,99.90
2019-05-23T07:21:23.236Z,99.90
2019-05-23T07:23:52.852Z,99.90
2019-05-23T07:26:22.628Z,99.90
2019-05-23T07:28:52.719Z,99.90
2019-05-23T07:31:22.341Z,99.90
2019-05-23T07:34:01.659Z,99.90
2019-05-23T07:36:22.905Z,99.90
2019-05-23T07:38:52.439Z,99.90
2019-05-23T07:41:23.940Z,99.90
2019-05-23T07:43:53.544Z,99.90
2019-05-23T07:46:23.019Z,99.90
2019-05-23T07:48:53.631Z,99.90
2019-05-23T07:51:23.177Z,99.90
2019-05-23T07:53:54.760Z,99.90
2019-05-23T07:56:25.935Z,99.90
2019-05-23T07:58:55.459Z,99.90
2019-05-23T08:01:26.648Z,99.90
2019-05-23T08:03:57.537Z,99.90
2019-05-23T08:06:27.193Z,99.90
2019-05-23T08:08:57.899Z,99.90
2019-05-23T08:11:27.653Z,99.90
2019-05-23T08:13:58.524Z,99.90
2019-05-23T08:16:28.654Z,99.90
2019-05-23T08:18:58.183Z,99.90
2019-05-23T08:21:27.862Z,99.90
2019-05-23T08:23:57.311Z,99.90
2019-05-23T08:26:28.820Z,99.90
2019-05-23T08:29:24.107Z,99.90
2019-05-23T08:31:30.457Z,99.90
2019-05-23T08:34:00.024Z,99.90
2019-05-23T08:36:29.951Z,99.90
2019-05-23T08:39:00.977Z,99.90
2019-05-23T08:41:30.582Z,99.90
2019-05-23T08:44:00.020Z,99.90
2019-05-23T08:46:31.170Z,99.90
2019-05-23T08:49:00.695Z,99.90
2019-05-23T08:51:30.575Z,99.90
2019-05-23T08:54:00.355Z,99.90
2019-05-23T08:56:30.358Z,99.90
2019-05-23T08:59:00.849Z,99.90
2019-05-23T09:01:31.357Z,99.90
2019-05-23T09:04:01.902Z,98.10
2019-05-23T09:06:31.538Z,95.20
2019-05-23T09:09:01.631Z,96.10
2019-05-23T09:11:33.018Z,95.70
2019-05-23T09:14:02.534Z,92.40
2019-05-23T09:16:33.309Z,72.90
2019-05-23T09:19:03.054Z,72.60
2019-05-23T09:21:32.523Z,80.30
2019-05-23T09:24:01.962Z,76.30
2019-05-23T09:26:31.500Z,72.80
2019-05-23T09:29:00.980Z,76.30
2019-05-23T09:31:31.067Z,90.90
2019-05-23T09:34:00.586Z,87.60
2019-05-23T09:36:30.122Z,99.90
2019-05-23T09:38:59.566Z,99.90
2019-05-23T09:41:29.183Z,93.20
2019-05-23T09:43:58.775Z,95.90
2019-05-23T09:46:28.305Z,92.20
2019-05-23T09:48:57.755Z,84.10
2019-05-23T09:51:27.218Z,96.70
2019-05-23T09:53:56.749Z,92.50
2019-05-23T09:56:26.277Z,92.90
2019-05-23T09:58:56.373Z,93.40
2019-05-23T10:01:25.998Z,82.30
2019-05-23T10:03:56.114Z,87.60
2019-05-23T10:06:25.662Z,86.00
2019-05-23T10:08:55.181Z,79.30
2019-05-23T10:11:24.650Z,85.60
2019-05-23T10:13:54.685Z,95.70
2019-05-23T10:16:24.205Z,91.30
2019-05-23T10:18:53.654Z,85.60
2019-05-23T10:21:23.372Z,78.50
2019-05-23T10:23:52.814Z,76.20
2019-05-23T10:26:22.298Z,75.10
2019-05-23T10:28:51.749Z,66.70
2019-05-23T10:31:21.389Z,68.30
2019-05-23T10:33:51.045Z,75.80
2019-05-23T10:36:20.702Z,74.60
2019-05-23T10:38:50.296Z,72.80
2019-05-23T10:41:19.756Z,69.90
2019-05-23T10:43:49.239Z,67.70
2019-05-23T10:46:18.744Z,68.10
2019-05-23T10:48:48.303Z,60.70
2019-05-23T10:51:17.816Z,62.10
2019-05-23T10:53:47.281Z,58.50
2019-05-23T10:56:20.505Z,72.40
2019-05-23T10:58:48.389Z,76.70
2019-05-23T11:01:18.005Z,84.80
2019-05-23T11:03:47.598Z,74.40
2019-05-23T11:06:17.281Z,62.40
2019-05-23T11:08:46.819Z,59.10
2019-05-23T11:11:16.306Z,58.40
2019-05-23T11:13:46.049Z,57.60
2019-05-23T11:16:15.641Z,64.50
2019-05-23T11:18:45.189Z,59.70
2019-05-23T11:21:14.637Z,61.80
2019-05-23T11:23:49.051Z,67.00
2019-05-23T11:26:18.485Z,63.90
2019-05-23T11:28:48.243Z,64.20
2019-05-23T11:31:18.156Z,59.80
2019-05-23T11:33:47.632Z,54.20
2019-05-23T11:36:33.943Z,58.70
2019-05-23T11:38:48.888Z,61.30
2019-05-23T11:41:19.206Z,61.80
2019-05-23T11:43:48.913Z,58.60
2019-05-23T11:46:32.221Z,58.80
2019-05-23T11:49:02.067Z,59.50
2019-05-23T11:51:31.516Z,68.90
2019-05-23T11:54:08.141Z,60.40
2019-05-23T11:56:33.163Z,60.20
2019-05-23T11:59:02.723Z,59.40
2019-05-23T12:01:34.345Z,63.40
2019-05-23T12:04:05.703Z,59.50
2019-05-23T12:06:55.351Z,60.90
2019-05-23T12:09:21.523Z,58.00
2019-05-23T12:11:50.984Z,57.50
2019-05-23T12:14:20.505Z,56.10
2019-05-23T12:16:50.325Z,57.00
2019-05-23T12:19:20.394Z,55.30
2019-05-23T12:21:49.911Z,53.90
2019-05-23T12:24:20.218Z,58.10
2019-05-23T12:26:49.745Z,55.70
2019-05-23T12:29:19.586Z,54.90
2019-05-23T12:31:49.922Z,55.70
2019-05-23T12:34:19.549Z,59.90
2019-05-23T12:36:49.068Z,58.10
2019-05-23T12:39:18.628Z,59.90
2019-05-23T12:41:48.086Z,58.50
2019-05-23T12:44:18.245Z,56.90
2019-05-23T12:46:47.842Z,57.80
2019-05-23T12:49:18.973Z,59.80
2019-05-23T12:51:48.418Z,56.20
2019-05-23T12:54:17.891Z,68.90
2019-05-23T12:56:49.083Z,56.80
2019-05-23T12:59:19.412Z,59.20
2019-05-23T13:01:50.691Z,53.80
2019-05-23T13:04:20.479Z,60.50
2019-05-23T13:06:50.834Z,58.00
2019-05-23T13:09:20.307Z,55.60
2019-05-23T13:11:49.926Z,64.30
2019-05-23T13:14:19.840Z,55.20
2019-05-23T13:16:49.299Z,58.30
2019-05-23T13:19:19.073Z,55.10
2019-05-23T13:21:48.595Z,51.30
2019-05-23T13:24:18.139Z,53.00
2019-05-23T13:26:47.654Z,55.10
2019-05-23T13:29:17.131Z,56.60
2019-05-23T13:31:46.658Z,54.30
2019-05-23T13:34:16.201Z,57.50
2019-05-23T13:36:45.754Z,57.50
2019-05-23T13:39:15.201Z,55.40
2019-05-23T13:41:44.747Z,50.00
2019-05-23T13:44:31.978Z,54.00
2019-05-23T13:46:45.426Z,52.60
2019-05-23T13:49:15.953Z,50.40
2019-05-23T13:51:45.788Z,49.50
2019-05-23T13:54:15.233Z,53.10
2019-05-23T13:56:47.769Z,57.20
2019-05-23T13:59:16.111Z,53.50
2019-05-23T14:01:45.707Z,53.60
2019-05-23T14:04:15.406Z,54.50
2019-05-23T14:06:44.858Z,57.90
2019-05-23T14:09:17.458Z,57.00
2019-05-23T14:11:47.061Z,54.40
2019-05-23T14:14:17.591Z,53.30
2019-05-23T14:16:48.714Z,56.50
2019-05-23T14:19:18.426Z,66.30
2019-05-23T14:22:09.573Z,57.50
2019-05-23T14:24:39.137Z,54.60
2019-05-23T14:27:10.222Z,55.20
2019-05-23T14:29:40.034Z,59.40
2019-05-23T14:32:11.145Z,60.00
2019-05-23T14:34:40.630Z,55.40
2019-05-23T14:37:28.006Z,51.60
2019-05-23T14:39:59.394Z,50.40
2019-05-23T14:42:42.434Z,55.00
2019-05-23T14:45:30.475Z,56.20
2019-05-23T14:48:01.926Z,54.00
2019-05-23T14:50:38.518Z,52.90
2019-05-23T14:53:09.662Z,51.60
2019-05-23T14:55:39.194Z,52.70
2019-05-23T14:58:09.580Z,52.30
2019-05-23T15:00:39.530Z,55.30
2019-05-23T15:03:08.997Z,53.00
2019-05-23T15:05:38.630Z,54.30
2019-05-23T15:08:08.086Z,55.50
2019-05-23T15:10:38.820Z,58.10
2019-05-23T15:13:08.326Z,55.70
2019-05-23T15:15:37.865Z,55.10
2019-05-23T15:18:07.698Z,56.90
2019-05-23T15:20:37.175Z,54.50
2019-05-23T15:23:07.161Z,54.90
2019-05-23T15:25:36.634Z,55.40
2019-05-23T15:28:06.549Z,56.50
2019-05-23T15:30:36.191Z,56.80
2019-05-23T15:33:05.920Z,55.10
2019-05-23T15:35:35.649Z,55.80
2019-05-23T15:38:05.115Z,54.80
2019-05-23T15:40:35.018Z,53.90
2019-05-23T15:43:04.538Z,50.70
2019-05-23T15:45:34.014Z,54.50
2019-05-23T15:48:03.539Z,50.80
2019-05-23T15:50:40.694Z,56.40
2019-05-23T15:53:26.769Z,55.20
2019-05-23T15:56:26.593Z,53.10
2019-05-23T15:58:46.857Z,54.10
2019-05-23T16:01:18.428Z,53.00
2019-05-23T16:03:49.687Z,51.30
2019-05-23T16:06:20.988Z,51.10
2019-05-23T16:08:50.425Z,48.00
2019-05-23T16:11:20.326Z,47.90
2019-05-23T16:13:49.770Z,49.90
2019-05-23T16:16:19.377Z,50.70
2019-05-23T16:18:49.390Z,48.80
2019-05-23T16:21:19.576Z,50.80
2019-05-23T16:23:49.085Z,49.30
2019-05-23T16:26:18.553Z,50.30
2019-05-23T16:28:48.174Z,43.30
2019-05-23T16:31:17.815Z,44.00
2019-05-23T16:33:48.236Z,47.30
2019-05-23T16:36:17.870Z,46.70
2019-05-23T16:38:47.316Z,50.90
2019-05-23T16:41:17.863Z,45.80
2019-05-23T16:43:47.476Z,45.90
2019-05-23T16:46:17.174Z,46.80
2019-05-23T16:48:47.233Z,45.10
2019-05-23T16:51:16.713Z,44.40
2019-05-23T16:53:46.158Z,45.10
2019-05-23T16:56:20.213Z,47.80
2019-05-23T16:59:03.364Z,51.10
2019-05-23T17:01:35.781Z,49.40
2019-05-23T17:04:12.681Z,48.80
2019-05-23T17:06:43.807Z,48.30
2019-05-23T17:09:14.891Z,46.50
2019-05-23T17:11:46.046Z,47.30
2019-05-23T17:14:23.150Z,47.90
2019-05-23T17:17:05.163Z,46.50
2019-05-23T17:19:33.142Z,49.10
2019-05-23T17:22:08.111Z,50.20
2019-05-23T17:24:40.059Z,49.90
2019-05-23T17:27:11.539Z,51.30
2019-05-23T17:29:42.679Z,47.20
2019-05-23T17:32:13.791Z,47.80
2019-05-23T17:34:43.578Z,48.10
2019-05-23T17:37:13.516Z,51.80
2019-05-23T17:39:43.863Z,50.20
2019-05-23T17:42:13.780Z,51.00
2019-05-23T17:44:43.302Z,52.60
2019-05-23T17:47:12.783Z,54.20
2019-05-23T17:49:42.308Z,54.10
2019-05-23T17:52:12.789Z,55.50
2019-05-23T17:54:42.381Z,55.80
2019-05-23T17:57:12.425Z,61.80
2019-05-23T17:59:44.051Z,59.30
2019-05-23T18:02:14.643Z,70.20
2019-05-23T18:04:47.413Z,85.40
2019-05-23T18:07:17.015Z,83.40
2019-05-23T18:09:46.943Z,76.50
2019-05-23T18:12:16.481Z,79.40
2019-05-23T18:14:46.269Z,89.00
2019-05-23T18:17:15.742Z,93.80
2019-05-23T18:19:45.426Z,99.90
2019-05-23T18:22:14.987Z,99.90
2019-05-23T18:24:44.441Z,99.90
2019-05-23T18:27:14.979Z,99.90
2019-05-23T18:29:44.500Z,99.90
2019-05-23T18:32:15.851Z,99.90
2019-05-23T18:34:45.687Z,99.90
2019-05-23T18:37:16.008Z,99.90
2019-05-23T18:39:51.336Z,99.90
2019-05-23T18:42:21.551Z,99.90
2019-05-23T18:44:51.183Z,99.90
2019-05-23T18:47:22.341Z,99.90
2019-05-23T18:49:53.042Z,99.90
2019-05-23T18:52:22.516Z,99.90
2019-05-23T18:54:52.273Z,99.90
2019-05-23T18:57:22.058Z,99.90
2019-05-23T18:59:51.574Z,99.90
2019-05-23T19:02:21.225Z,99.90
2019-05-23T19:04:51.326Z,99.90
2019-05-23T19:07:20.877Z,99.90
2019-05-23T19:09:50.326Z,99.90
2019-05-23T19:12:20.173Z,99.90
2019-05-23T19:14:49.694Z,99.90
2019-05-23T19:17:19.454Z,99.90
2019-05-23T19:19:49.290Z,99.90
2019-05-23T19:22:18.817Z,99.90
2019-05-23T19:24:48.354Z,99.90
2019-05-23T19:27:18.773Z,99.90
2019-05-23T19:29:48.993Z,99.90
2019-05-23T19:32:19.522Z,99.90
2019-05-23T19:34:48.996Z,99.90
2019-05-23T19:37:18.568Z,99.90
2019-05-23T19:39:48.720Z,99.90
2019-05-23T19:42:18.545Z,99.90
2019-05-23T19:44:48.114Z,99.90
2019-05-23T19:47:17.825Z,99.90
2019-05-23T19:49:47.323Z,99.90
2019-05-23T19:52:17.306Z,99.90
2019-05-23T19:54:47.587Z,99.90
2019-05-23T19:57:18.127Z,99.90
2019-05-23T19:59:47.604Z,99.90
2019-05-23T20:02:31.460Z,99.90
2019-05-23T20:05:05.541Z,99.90
2019-05-23T20:07:35.146Z,99.90
2019-05-23T20:10:05.265Z,99.90
2019-05-23T20:12:35.355Z,99.90
2019-05-23T20:15:06.377Z,99.90
2019-05-23T20:17:35.871Z,99.90
2019-05-23T20:20:06.767Z,99.90
2019-05-23T20:22:42.670Z,99.90
2019-05-23T20:25:12.638Z,99.90
2019-05-23T20:27:42.244Z,99.90
2019-05-23T20:30:15.280Z,99.90
2019-05-23T20:32:44.812Z,99.90
2019-05-23T20:35:14.669Z,99.90
2019-05-23T20:37:44.268Z,99.90
2019-05-23T20:40:14.222Z,99.90
2019-05-23T20:42:44.061Z,99.90
2019-05-23T20:45:13.932Z,99.90
2019-05-23T20:47:43.556Z,99.90
2019-05-23T20:50:13.109Z,99.90
2019-05-23T20:52:42.579Z,99.90
2019-05-23T20:55:12.472Z,99.90
2019-05-23T20:57:41.935Z,99.90
2019-05-23T21:00:13.799Z,99.90
2019-05-23T21:02:43.587Z,99.90
2019-05-23T21:05:13.284Z,99.90
2019-05-23T21:07:42.751Z,99.90
2019-05-23T21:10:15.313Z,99.90
2019-05-23T21:12:44.776Z,99.90
2019-05-23T21:15:14.251Z,99.90
2019-05-23T21:17:43.800Z,99.90
2019-05-23T21:20:13.347Z,99.90
2019-05-23T21:22:42.812Z,99.90
2019-05-23T21:25:12.569Z,99.90
2019-05-23T21:27:42.032Z,99.90
2019-05-23T21:30:12.658Z,99.90
2019-05-23T21:32:42.124Z,99.90
2019-05-23T21:35:11.694Z,99.90
2019-05-23T21:37:41.228Z,99.90
2019-05-23T21:40:13.788Z,99.90
2019-05-23T21:42:47.575Z,99.90
2019-05-23T21:45:14.444Z,99.90
2019-05-23T21:47:43.908Z,99.90
2019-05-23T21:50:13.762Z,99.90
2019-05-23T21:52:43.233Z,99.90
2019-05-23T21:55:15.793Z,99.90
2019-05-23T21:57:45.249Z,99.90
2019-05-23T22:00:19.452Z,99.90
2019-05-23T22:02:50.536Z,99.90
2019-05-23T22:05:20.279Z,99.90
2019-05-23T22:07:49.789Z,99.90
2019-05-23T22:10:20.357Z,99.90
2019-05-23T22:13:03.546Z,99.90
2019-05-23T22:15:35.654Z,99.90
2019-05-23T22:18:05.745Z,99.90
2019-05-23T22:20:35.228Z,99.90
2019-05-23T22:23:04.696Z,99.90
2019-05-23T22:25:34.323Z,99.90
2019-05-23T22:28:03.856Z,99.90
2019-05-23T22:30:33.411Z,99.90
2019-05-23T22:33:03.040Z,99.90
2019-05-23T22:35:32.563Z,99.90
2019-05-23T22:38:02.100Z,99.90
2019-05-23T22:40:31.754Z,99.90
2019-05-23T22:43:01.364Z,99.90
2019-05-23T22:45:31.189Z,99.90
2019-05-23T22:48:00.651Z,99.90
2019-05-23T22:50:30.143Z,99.90
2019-05-23T22:52:59.612Z,99.90
2019-05-23T22:55:29.473Z,99.90
2019-05-23T22:57:58.942Z,99.90
2019-05-23T23:00:30.133Z,99.90
2019-05-23T23:02:59.601Z,99.90
2019-05-23T23:05:29.156Z,99.90
2019-05-23T23:07:58.615Z,99.90
2019-05-23T23:10:28.101Z,99.90
2019-05-23T23:12:57.635Z,99.90
2019-05-23T23:15:28.499Z,99.90
2019-05-23T23:17:57.965Z,99.90
2019-05-23T23:20:27.453Z,99.90
2019-05-23T23:22:56.918Z,99.90
2019-05-23T23:25:26.404Z,99.90
2019-05-23T23:27:55.865Z,99.90
2019-05-23T23:30:27.958Z,99.90
2019-05-23T23:32:57.671Z,99.90
2019-05-23T23:35:27.163Z,99.90
2019-05-23T23:37:56.792Z,99.90
2019-05-23T23:40:26.343Z,99.90
2019-05-23T23:42:55.804Z,99.90
2019-05-23T23:45:43.807Z,99.90
2019-05-23T23:48:31.504Z,99.90
2019-05-23T23:51:18.842Z,99.90
2019-05-23T23:54:06.380Z,99.90
2019-05-23T23:56:54.001Z,99.90
2019-05-23T23:59:22.779Z,99.90
